Time;durP1;ratioP1;P1;durP2;ratioP2;P2;SDS_P1;SDS_P2;PMS_P1;PMS_P2;Temp;Humidity;BMP_temperature;BMP_pressure;BME280_temperature;BME280_humidity;BME280_pressure;Samples;Min_cycle;Max_cycle;Signal;HPM_P1;HPM_P2
2023/03/03 00:02:07;;;;;;;27.33;18.43;;;5.40;98.00;;;;;;5044493;28;20211;-32
2023/03/03 00:04:41;;;;;;;27.43;18.10;;;5.40;97.80;;;;;;5066749;28;20211;-33
2023/03/03 00:07:10;;;;;;;28.40;18.10;;;5.40;98.00;;;;;;5063906;28;20276;-32
2023/03/03 00:09:39;;;;;;;29.60;18.80;;;5.30;97.60;;;;;;5044809;28;20247;-33
2023/03/03 00:12:27;;;;;;;31.37;19.20;;;5.30;97.80;;;;;;5047206;28;20231;-32
2023/03/03 00:14:57;;;;;;;30.70;16.67;;;5.30;98.00;;;;;;5047223;28;20200;-32
2023/03/03 00:17:29;;;;;;;28.43;17.50;;;5.30;97.70;;;;;;5044779;28;20588;-33
2023/03/03 00:19:56;;;;;;;29.23;18.33;;;5.20;97.60;;;;;;5043735;28;20303;-32
2023/03/03 00:22:34;;;;;;;28.07;17.23;;;5.20;97.70;;;;;;5045248;28;20232;-33
2023/03/03 00:25:31;;;;;;;28.50;17.07;;;5.20;98.00;;;;;;5046751;28;20548;-32
2023/03/03 00:28:21;;;;;;;27.63;17.87;;;5.20;97.80;;;;;;5059676;28;20886;-32
2023/03/03 00:30:48;;;;;;;25.97;16.30;;;5.10;97.80;;;;;;5061128;28;20287;-32
2023/03/03 00:33:43;;;;;;;29.50;18.03;;;5.10;97.40;;;;;;5058289;28;20208;-32
2023/03/03 00:36:13;;;;;;;28.43;17.67;;;5.10;97.80;;;;;;5043868;28;20283;-33
2023/03/03 00:38:44;;;;;;;28.87;17.73;;;5.00;97.60;;;;;;5028330;28;20249;-34
2023/03/03 00:41:28;;;;;;;30.83;18.40;;;5.00;97.60;;;;;;5026327;28;20201;-32
2023/03/03 00:43:56;;;;;;;29.70;18.27;;;4.90;97.90;;;;;;5026105;28;20220;-32
2023/03/03 00:46:26;;;;;;;26.37;17.87;;;4.90;97.60;;;;;;5026399;28;20199;-33
2023/03/03 00:48:53;;;;;;;26.33;16.63;;;4.90;97.50;;;;;;5055065;28;20239;-33
2023/03/03 00:51:34;;;;;;;30.47;18.27;;;4.90;97.60;;;;;;5024889;28;20196;-32
2023/03/03 00:54:06;;;;;;;27.87;17.87;;;4.80;97.80;;;;;;5039226;28;20650;-33
2023/03/03 00:56:37;;;;;;;27.80;17.60;;;4.80;97.60;;;;;;5026197;28;20723;-32
2023/03/03 00:59:06;;;;;;;29.43;17.50;;;4.70;97.50;;;;;;5037484;28;20287;-32
2023/03/03 01:01:33;;;;;;;28.60;17.50;;;4.70;97.40;;;;;;5045836;28;20234;-32
2023/03/03 01:04:02;;;;;;;29.30;17.40;;;4.70;97.50;;;;;;5060715;28;20208;-32
2023/03/03 01:06:32;;;;;;;27.50;17.00;;;4.70;97.40;;;;;;5045957;28;20208;-32
2023/03/03 01:08:59;;;;;;;27.67;17.70;;;4.60;97.30;;;;;;5059234;28;20656;-32
2023/03/03 01:11:28;;;;;;;29.87;18.10;;;4.60;97.50;;;;;;5044023;28;20204;-32
2023/03/03 01:13:59;;;;;;;30.77;17.10;;;4.60;97.70;;;;;;5045792;28;20236;-32
2023/03/03 01:16:27;;;;;;;27.70;17.00;;;4.50;97.40;;;;;;5060669;28;20689;-32
2023/03/03 01:18:55;;;;;;;30.03;18.00;;;4.50;97.60;;;;;;5030633;28;20200;-32
2023/03/03 01:21:22;;;;;;;29.07;17.63;;;4.50;97.60;;;;;;5024638;28;20213;-32
2023/03/03 01:23:51;;;;;;;28.40;17.63;;;4.40;97.40;;;;;;5023015;28;20201;-34
2023/03/03 01:26:18;;;;;;;30.40;18.37;;;4.40;97.30;;;;;;5035169;28;20552;-34
2023/03/03 01:28:48;;;;;;;29.47;16.27;;;4.40;97.70;;;;;;5061707;28;20278;-34
2023/03/03 01:31:22;;;;;;;27.60;17.20;;;4.40;97.60;;;;;;5064072;28;20211;-33
2023/03/03 01:33:54;;;;;;;28.23;16.93;;;4.30;97.30;;;;;;5065321;28;20693;-33
2023/03/03 01:36:25;;;;;;;29.87;17.50;;;4.30;97.30;;;;;;5053542;28;20279;-34
2023/03/03 01:38:55;;;;;;;30.13;17.43;;;4.30;97.60;;;;;;5030860;28;20270;-34
2023/03/03 01:41:24;;;;;;;30.60;17.67;;;4.30;97.70;;;;;;5040603;28;20207;-34
2023/03/03 01:43:54;;;;;;;28.53;17.90;;;4.30;97.40;;;;;;5025368;28;20746;-33
2023/03/03 01:46:51;;;;;;;30.00;17.90;;;4.20;97.70;;;;;;5030846;28;20212;-33
2023/03/03 01:49:25;;;;;;;27.47;17.10;;;4.20;98.00;;;;;;5027590;28;20306;-33
2023/03/03 01:51:57;;;;;;;27.87;17.90;;;4.20;97.70;;;;;;5043985;28;20208;-33
2023/03/03 01:54:34;;;;;;;29.50;18.67;;;4.10;97.70;;;;;;5041765;28;20718;-33
2023/03/03 01:57:12;;;;;;;30.30;19.60;;;4.10;98.40;;;;;;5043354;28;20220;-33
2023/03/03 01:59:48;;;;;;;29.80;17.93;;;4.10;98.30;;;;;;5042037;28;20200;-33
2023/03/03 02:02:18;;;;;;;28.27;18.63;;;4.00;98.10;;;;;;5043091;28;20234;-34
2023/03/03 02:04:48;;;;;;;27.67;18.53;;;4.00;97.80;;;;;;5042271;28;20763;-32
2023/03/03 02:07:16;;;;;;;31.33;18.93;;;4.00;98.00;;;;;;5048316;28;20212;-32
2023/03/03 02:09:50;;;;;;;31.90;18.10;;;4.00;98.10;;;;;;5032833;28;20278;-32
2023/03/03 02:12:21;;;;;;;28.63;18.17;;;4.00;98.10;;;;;;5049041;28;20303;-33
2023/03/03 02:14:53;;;;;;;29.73;18.13;;;4.00;97.70;;;;;;5061976;28;20218;-32
2023/03/03 02:17:22;;;;;;;30.47;19.10;;;4.00;97.90;;;;;;5048973;28;20200;-32
2023/03/03 02:20:20;;;;;;;27.43;17.40;;;3.90;98.10;;;;;;5048890;28;20204;-32
2023/03/03 02:22:57;;;;;;;33.27;20.43;;;3.90;97.80;;;;;;5052325;28;20204;-32
2023/03/03 02:25:38;;;;;;;27.03;18.77;;;3.90;98.10;;;;;;5063290;28;20210;-32
2023/03/03 02:28:05;;;;;;;26.07;17.33;;;3.90;98.10;;;;;;5047131;28;20204;-31
2023/03/03 02:30:37;;;;;;;28.67;18.67;;;3.90;97.60;;;;;;5033753;28;20213;-33
2023/03/03 02:33:05;;;;;;;30.67;18.13;;;3.90;97.80;;;;;;5030804;28;20770;-32
2023/03/03 02:35:34;;;;;;;31.53;19.23;;;3.80;97.70;;;;;;5046813;28;20200;-32
2023/03/03 02:38:26;;;;;;;29.63;18.67;;;3.80;98.00;;;;;;5046343;28;20227;-32
2023/03/03 02:41:31;;;;;;;31.97;19.30;;;3.80;97.80;;;;;;5029042;28;20203;-32
2023/03/03 02:44:00;;;;;;;29.43;18.57;;;3.80;98.20;;;;;;5036011;28;20204;-32
2023/03/03 02:46:33;;;;;;;28.57;18.17;;;3.70;97.70;;;;;;5063571;28;20632;-32
2023/03/03 02:49:01;;;;;;;34.87;19.60;;;3.80;97.80;;;;;;5047043;28;20226;-32
2023/03/03 02:51:29;;;;;;;34.00;19.77;;;3.70;97.70;;;;;;5047193;28;20196;-32
2023/03/03 02:53:56;;;;;;;30.77;19.27;;;3.70;97.90;;;;;;5046402;28;20278;-32
2023/03/03 02:56:26;;;;;;;30.60;19.73;;;3.70;97.90;;;;;;5046970;28;20254;-32
2023/03/03 02:58:53;;;;;;;30.70;19.83;;;3.70;98.00;;;;;;5045909;28;20261;-32
2023/03/03 03:01:21;;;;;;;31.73;19.53;;;3.60;97.70;;;;;;5048121;28;20235;-31
2023/03/03 03:03:49;;;;;;;33.60;19.50;;;3.70;97.60;;;;;;5047521;28;20197;-32
2023/03/03 03:06:18;;;;;;;29.67;19.57;;;3.70;97.70;;;;;;5046711;28;20220;-32
2023/03/03 03:08:46;;;;;;;29.57;18.63;;;3.70;97.90;;;;;;5040523;28;20221;-32
2023/03/03 03:11:13;;;;;;;33.37;19.53;;;3.70;98.00;;;;;;5060718;28;20305;-32
2023/03/03 03:13:43;;;;;;;32.77;19.37;;;3.60;98.00;;;;;;5047458;28;20216;-32
2023/03/03 03:16:13;;;;;;;34.27;20.47;;;3.70;97.80;;;;;;5060024;28;20731;-32
2023/03/03 03:18:45;;;;;;;36.27;21.27;;;3.60;98.30;;;;;;5047759;28;20204;-32
2023/03/03 03:21:12;;;;;;;33.93;20.43;;;3.60;99.50;;;;;;5046467;28;20314;-34
2023/03/03 03:23:42;;;;;;;32.93;19.70;;;3.60;98.60;;;;;;5060024;28;20216;-33
2023/03/03 03:26:09;;;;;;;32.63;19.37;;;3.70;98.80;;;;;;5047515;28;20232;-33
2023/03/03 03:28:37;;;;;;;33.63;20.93;;;3.70;98.80;;;;;;5046480;28;20220;-33
2023/03/03 03:31:08;;;;;;;36.23;20.40;;;3.70;98.80;;;;;;5062047;28;20212;-34
2023/03/03 03:33:35;;;;;;;37.57;21.37;;;3.60;99.70;;;;;;5045426;28;20236;-33
2023/03/03 03:36:05;;;;;;;35.70;21.87;;;3.70;99.60;;;;;;5045507;28;20208;-33
2023/03/03 03:38:33;;;;;;;37.13;21.73;;;3.70;99.50;;;;;;5041325;28;20300;-34
2023/03/03 03:41:00;;;;;;;35.97;21.93;;;3.70;99.20;;;;;;5046737;28;20254;-33
2023/03/03 03:43:28;;;;;;;37.67;21.73;;;3.70;99.40;;;;;;5047329;28;20204;-33
2023/03/03 03:45:59;;;;;;;37.97;22.10;;;3.70;99.30;;;;;;5046219;28;20563;-33
2023/03/03 03:48:30;;;;;;;33.30;21.17;;;3.70;99.40;;;;;;5047151;28;20762;-34
2023/03/03 03:51:00;;;;;;;34.60;19.63;;;3.70;99.10;;;;;;5047760;28;20339;-34
2023/03/03 03:53:27;;;;;;;34.63;19.87;;;3.80;99.00;;;;;;5044627;28;20236;-33
2023/03/03 03:55:54;;;;;;;36.60;21.40;;;3.70;99.00;;;;;;5046121;28;20231;-33
2023/03/03 03:58:21;;;;;;;36.07;21.10;;;3.80;99.00;;;;;;5045154;28;20204;-34
2023/03/03 04:00:51;;;;;;;35.63;21.03;;;3.80;99.30;;;;;;5045776;28;20302;-33
2023/03/03 04:03:18;;;;;;;35.73;20.83;;;3.80;99.10;;;;;;5044773;28;20685;-33
2023/03/03 04:05:49;;;;;;;35.03;20.30;;;3.80;99.30;;;;;;5048733;28;20212;-34
2023/03/03 04:08:17;;;;;;;37.07;20.67;;;3.70;99.60;;;;;;5045978;28;20295;-33
2023/03/03 04:10:44;;;;;;;34.50;20.23;;;3.70;99.10;;;;;;5060831;28;20299;-33
2023/03/03 04:13:13;;;;;;;34.20;21.23;;;3.70;99.10;;;;;;5045392;28;20208;-33
2023/03/03 04:15:41;;;;;;;31.90;18.90;;;3.70;99.00;;;;;;5044662;28;20240;-33
2023/03/03 04:18:08;;;;;;;37.73;21.33;;;3.70;99.10;;;;;;5046832;28;20629;-34
2023/03/03 04:20:44;;;;;;;32.73;20.37;;;3.60;99.30;;;;;;5045454;28;20215;-33
2023/03/03 04:23:13;;;;;;;32.60;20.53;;;3.60;99.80;;;;;;5045951;28;20203;-34
2023/03/03 04:25:44;;;;;;;37.23;21.13;;;3.60;99.20;;;;;;5046125;28;20220;-33
2023/03/03 04:28:12;;;;;;;34.60;20.93;;;3.50;99.90;;;;;;5045316;28;20295;-33
2023/03/03 04:30:41;;;;;;;33.83;19.63;;;3.50;99.90;;;;;;5045097;28;20224;-33
2023/03/03 04:33:11;;;;;;;35.77;21.40;;;3.50;99.50;;;;;;5046271;28;20212;-34
2023/03/03 04:35:38;;;;;;;33.33;20.63;;;3.40;99.90;;;;;;5045685;28;20200;-33
2023/03/03 04:38:08;;;;;;;39.40;22.27;;;3.50;99.40;;;;;;5045147;28;20728;-33
2023/03/03 04:40:35;;;;;;;30.90;19.93;;;3.40;99.50;;;;;;5037664;28;20215;-33
2023/03/03 04:43:07;;;;;;;36.20;21.30;;;3.50;99.20;;;;;;5026267;28;20243;-33
2023/03/03 04:45:35;;;;;;;35.77;20.70;;;3.50;99.20;;;;;;5028648;28;20200;-34
2023/03/03 04:48:02;;;;;;;34.50;19.07;;;3.60;99.00;;;;;;5045730;28;20679;-34
2023/03/03 04:50:29;;;;;;;37.00;20.80;;;3.60;99.40;;;;;;5044287;28;20591;-33
2023/03/03 04:52:57;;;;;;;35.93;21.73;;;3.60;99.30;;;;;;5045079;28;20259;-34
2023/03/03 04:55:26;;;;;;;37.97;22.07;;;3.50;99.90;;;;;;5044131;28;20262;-33
2023/03/03 04:57:55;;;;;;;35.23;21.20;;;3.50;99.70;;;;;;5043415;28;20266;-33
2023/03/03 05:00:25;;;;;;;38.53;21.53;;;3.50;99.30;;;;;;5026117;28;20208;-33
2023/03/03 05:02:58;;;;;;;36.43;21.13;;;3.60;99.40;;;;;;5024240;28;20841;-33
2023/03/03 05:05:27;;;;;;;34.43;20.33;;;3.60;99.50;;;;;;5027539;28;20624;-33
2023/03/03 05:07:55;;;;;;;41.07;22.43;;;3.60;99.30;;;;;;5044255;28;20681;-33
2023/03/03 05:10:26;;;;;;;37.03;21.40;;;3.50;99.50;;;;;;5043839;28;20231;-33
2023/03/03 05:12:54;;;;;;;37.77;20.93;;;3.40;99.90;;;;;;5044386;28;20201;-34
2023/03/03 05:15:23;;;;;;;35.73;20.53;;;3.40;99.90;;;;;;5045730;28;20196;-33
2023/03/03 05:17:55;;;;;;;38.93;21.93;;;3.40;99.90;;;;;;5043071;28;20193;-33
2023/03/03 05:20:23;;;;;;;38.57;21.90;;;3.40;99.90;;;;;;5044215;28;20227;-33
2023/03/03 05:22:51;;;;;;;39.10;21.27;;;3.30;99.90;;;;;;5043737;28;20235;-33
2023/03/03 05:25:18;;;;;;;39.60;22.57;;;3.40;99.90;;;;;;5044076;28;20208;-33
2023/03/03 05:27:48;;;;;;;38.67;22.40;;;3.40;99.90;;;;;;5044346;28;20556;-34
2023/03/03 05:30:18;;;;;;;42.97;23.57;;;3.40;99.70;;;;;;5060874;28;20228;-34
2023/03/03 05:32:52;;;;;;;41.63;23.83;;;3.40;99.90;;;;;;5043871;28;20671;-33
2023/03/03 05:35:22;;;;;;;41.23;21.13;;;3.40;99.90;;;;;;5060496;28;20240;-33
2023/03/03 05:37:52;;;;;;;39.93;21.40;;;3.40;99.90;;;;;;5054238;28;20211;-33
2023/03/03 05:40:24;;;;;;;45.90;23.77;;;3.30;99.90;;;;;;5045583;28;20204;-33
2023/03/03 05:42:51;;;;;;;44.80;24.20;;;3.30;99.90;;;;;;5024666;28;20291;-34
2023/03/03 05:45:23;;;;;;;44.80;25.03;;;3.20;99.90;;;;;;5025760;28;20196;-33
2023/03/03 05:47:50;;;;;;;44.17;24.80;;;3.20;99.90;;;;;;5038331;28;20563;-33
2023/03/03 05:50:19;;;;;;;44.27;25.57;;;3.20;99.90;;;;;;5043484;28;20250;-34
2023/03/03 05:52:53;;;;;;;44.40;24.07;;;3.20;99.90;;;;;;5046501;28;20254;-33
2023/03/03 05:55:20;;;;;;;46.47;25.57;;;3.20;99.90;;;;;;5065243;28;20357;-33
2023/03/03 05:57:49;;;;;;;40.10;23.07;;;3.20;99.90;;;;;;5046970;28;20295;-33
2023/03/03 06:00:17;;;;;;;41.43;24.37;;;3.20;99.90;;;;;;5043852;28;20232;-33
2023/03/03 06:02:47;;;;;;;39.40;23.97;;;3.30;99.80;;;;;;5042567;28;20295;-33
2023/03/03 06:05:14;;;;;;;45.70;25.13;;;3.30;99.90;;;;;;5043060;28;20223;-33
2023/03/03 06:07:48;;;;;;;43.20;24.90;;;3.20;99.90;;;;;;5043449;28;20323;-33
2023/03/03 06:10:15;;;;;;;39.57;23.83;;;3.10;99.90;;;;;;5044561;28;20228;-33
2023/03/03 06:12:45;;;;;;;41.17;25.13;;;3.20;99.90;;;;;;5041979;28;20208;-33
2023/03/03 06:15:12;;;;;;;46.67;24.63;;;3.10;99.90;;;;;;5043168;28;20192;-33
2023/03/03 06:17:39;;;;;;;42.07;25.17;;;3.20;99.90;;;;;;5042217;28;20216;-33
2023/03/03 06:20:12;;;;;;;39.77;22.03;;;3.20;99.90;;;;;;5045022;28;20200;-33
2023/03/03 06:22:39;;;;;;;40.77;23.90;;;3.20;99.90;;;;;;5043684;28;20200;-34
2023/03/03 06:25:07;;;;;;;42.03;22.03;;;3.10;99.90;;;;;;5044920;28;20303;-33
2023/03/03 06:27:36;;;;;;;39.10;22.83;;;3.10;99.90;;;;;;5043684;28;20240;-33
2023/03/03 06:30:09;;;;;;;38.90;22.10;;;3.10;99.90;;;;;;5044419;28;20253;-33
2023/03/03 06:32:39;;;;;;;39.27;21.93;;;3.10;99.90;;;;;;5044114;28;20235;-32
2023/03/03 06:35:09;;;;;;;45.00;24.40;;;3.00;99.90;;;;;;5030815;28;20248;-32
2023/03/03 06:37:38;;;;;;;40.83;23.83;;;3.00;99.90;;;;;;5040968;28;20262;-32
2023/03/03 06:40:11;;;;;;;42.27;23.00;;;3.10;99.90;;;;;;5044992;28;20250;-33
2023/03/03 06:42:43;;;;;;;40.80;23.33;;;3.10;99.90;;;;;;5043640;28;20220;-32
2023/03/03 06:45:11;;;;;;;47.53;26.07;;;3.10;99.90;;;;;;5059635;28;20215;-32
2023/03/03 06:47:38;;;;;;;43.77;24.77;;;3.20;99.90;;;;;;5057220;28;20291;-32
2023/03/03 06:50:06;;;;;;;45.57;24.87;;;3.20;99.90;;;;;;5044361;28;20784;-32
2023/03/03 06:52:36;;;;;;;47.40;27.30;;;3.30;99.90;;;;;;5039049;28;20197;-33
2023/03/03 06:55:12;;;;;;;49.13;25.97;;;3.30;99.90;;;;;;5046619;28;20597;-32
2023/03/03 06:57:41;;;;;;;47.03;25.27;;;3.30;99.90;;;;;;5047164;28;20520;-33
2023/03/03 07:00:19;;;;;;;42.40;24.10;;;3.30;99.90;;;;;;5043257;28;20308;-33
2023/03/03 07:02:52;;;;;;;44.43;23.83;;;3.30;99.90;;;;;;5042987;28;20767;-32
2023/03/03 07:05:22;;;;;;;48.90;24.40;;;3.30;99.90;;;;;;5045842;28;20236;-33
2023/03/03 07:07:49;;;;;;;46.37;25.00;;;3.30;99.90;;;;;;5052629;28;20224;-32
2023/03/03 07:10:27;;;;;;;39.20;23.40;;;3.30;99.90;;;;;;5060580;28;20231;-31
2023/03/03 07:13:15;;;;;;;47.83;25.33;;;3.30;99.90;;;;;;5045186;28;20253;-33
2023/03/03 07:15:45;;;;;;;41.57;23.33;;;3.30;99.90;;;;;;5046399;28;20210;-33
2023/03/03 07:18:40;;;;;;;45.50;22.60;;;3.30;99.90;;;;;;5045829;28;20337;-32
2023/03/03 07:21:22;;;;;;;45.17;23.63;;;3.30;99.90;;;;;;5047285;28;20640;-32
2023/03/03 07:23:57;;;;;;;45.07;24.50;;;3.30;99.90;;;;;;5047327;28;20239;-32
2023/03/03 07:26:33;;;;;;;41.93;23.23;;;3.30;99.90;;;;;;5045477;28;20315;-32
2023/03/03 07:29:25;;;;;;;45.43;23.83;;;3.30;99.90;;;;;;5043155;28;20210;-33
2023/03/03 07:31:55;;;;;;;41.73;23.30;;;3.40;99.90;;;;;;5052501;28;20255;-32
2023/03/03 07:34:28;;;;;;;44.03;23.53;;;3.40;99.90;;;;;;5046565;28;20210;-32
2023/03/03 07:37:04;;;;;;;44.03;22.77;;;3.40;99.90;;;;;;5042905;28;20206;-31
2023/03/03 07:39:38;;;;;;;42.83;24.13;;;3.40;99.90;;;;;;5044776;28;20234;-32
2023/03/03 07:42:18;;;;;;;42.13;23.33;;;3.40;99.90;;;;;;5046575;28;20299;-32
2023/03/03 07:44:47;;;;;;;40.03;23.00;;;3.50;99.90;;;;;;5059031;28;20247;-32
2023/03/03 07:47:24;;;;;;;38.77;21.70;;;3.50;99.90;;;;;;5050148;28;20212;-32
2023/03/03 07:50:23;;;;;;;36.50;20.73;;;3.40;99.90;;;;;;5043590;28;20226;-33
2023/03/03 07:52:57;;;;;;;35.13;19.40;;;3.40;99.90;;;;;;5042421;28;20323;-32
2023/03/03 07:55:35;;;;;;;40.20;21.60;;;3.30;99.90;;;;;;5045686;28;20223;-32
2023/03/03 07:58:15;;;;;;;33.43;19.43;;;3.30;99.90;;;;;;5046805;28;20266;-32
2023/03/03 08:00:42;;;;;;;36.70;20.03;;;3.30;99.90;;;;;;5057465;28;20204;-32
2023/03/03 08:03:19;;;;;;;37.47;20.80;;;3.30;99.90;;;;;;5043746;28;20315;-33
2023/03/03 08:05:52;;;;;;;32.67;19.03;;;3.30;99.90;;;;;;5045183;28;20532;-32
2023/03/03 08:08:42;;;;;;;36.60;20.17;;;3.30;99.90;;;;;;5043030;28;20219;-32
2023/03/03 08:11:09;;;;;;;40.37;22.43;;;3.30;99.90;;;;;;5064008;28;20571;-32
2023/03/03 08:13:41;;;;;;;35.60;20.30;;;3.20;99.90;;;;;;5043243;28;20266;-32
2023/03/03 08:16:08;;;;;;;40.63;20.33;;;3.30;99.90;;;;;;5043622;28;20310;-32
2023/03/03 08:18:54;;;;;;;36.67;21.03;;;3.30;99.90;;;;;;5042724;28;20564;-32
2023/03/03 08:21:27;;;;;;;39.07;20.83;;;3.30;99.90;;;;;;5041508;28;20208;-33
2023/03/03 08:23:57;;;;;;;39.43;20.70;;;3.30;99.90;;;;;;5043108;28;20204;-33
2023/03/03 08:26:29;;;;;;;38.60;20.30;;;3.30;99.90;;;;;;5029018;28;20282;-33
2023/03/03 08:29:00;;;;;;;37.30;19.83;;;3.30;99.90;;;;;;5044114;28;20701;-33
2023/03/03 08:31:31;;;;;;;34.93;18.90;;;3.40;99.90;;;;;;5043348;28;20378;-33
2023/03/03 08:34:10;;;;;;;34.93;19.33;;;3.40;99.90;;;;;;5043292;28;20273;-33
2023/03/03 08:36:39;;;;;;;36.90;20.40;;;3.50;99.90;;;;;;5036430;28;20214;-33
2023/03/03 08:39:09;;;;;;;38.70;19.67;;;3.40;99.90;;;;;;5041064;28;20340;-34
2023/03/03 08:41:37;;;;;;;32.77;17.20;;;3.40;99.90;;;;;;5043706;28;20214;-33
2023/03/03 08:44:05;;;;;;;36.40;18.40;;;3.40;99.90;;;;;;5046007;28;20773;-33
2023/03/03 08:46:32;;;;;;;35.37;17.77;;;3.50;99.90;;;;;;5047542;28;20204;-33
2023/03/03 08:48:59;;;;;;;36.17;19.33;;;3.50;99.90;;;;;;5045782;28;20208;-33
2023/03/03 08:51:29;;;;;;;34.43;17.97;;;3.50;99.90;;;;;;5044194;28;20273;-33
2023/03/03 08:53:59;;;;;;;33.40;18.57;;;3.60;99.90;;;;;;5042964;28;20274;-33
2023/03/03 08:56:28;;;;;;;35.83;18.13;;;3.60;99.90;;;;;;5058239;28;20215;-33
2023/03/03 08:58:56;;;;;;;42.90;18.80;;;3.60;99.90;;;;;;5043348;28;20670;-33
2023/03/03 09:01:33;;;;;;;33.43;17.47;;;3.70;99.90;;;;;;5062362;28;20743;-33
2023/03/03 09:04:01;;;;;;;35.60;19.03;;;3.70;99.90;;;;;;5039928;28;20281;-33
2023/03/03 09:06:33;;;;;;;34.33;17.67;;;3.80;99.90;;;;;;5059349;28;20243;-33
2023/03/03 09:09:01;;;;;;;33.33;17.67;;;3.80;99.90;;;;;;5044264;28;20630;-33
2023/03/03 09:11:31;;;;;;;34.03;19.17;;;3.70;99.90;;;;;;5059659;28;20317;-34
2023/03/03 09:14:09;;;;;;;38.00;19.57;;;3.70;99.90;;;;;;5038985;28;20667;-33
2023/03/03 09:16:47;;;;;;;34.30;18.73;;;3.70;99.90;;;;;;5060318;28;20622;-34
2023/03/03 09:19:31;;;;;;;35.87;18.83;;;3.70;99.90;;;;;;5050500;28;20266;-34
2023/03/03 09:22:10;;;;;;;32.00;17.90;;;3.80;99.90;;;;;;5045344;28;20276;-33
2023/03/03 09:24:41;;;;;;;39.00;19.67;;;3.80;99.90;;;;;;5042730;28;20632;-33
2023/03/03 09:27:23;;;;;;;38.53;19.87;;;3.80;99.90;;;;;;5044431;28;20631;-33
2023/03/03 09:29:53;;;;;;;38.63;20.13;;;3.80;99.90;;;;;;5072139;28;20231;-33
2023/03/03 09:32:38;;;;;;;40.30;20.63;;;3.70;99.90;;;;;;5069552;28;20231;-33
2023/03/03 09:35:39;;;;;;;39.23;21.17;;;3.80;99.90;;;;;;5044838;28;20322;-34
2023/03/03 09:38:39;;;;;;;40.60;21.40;;;3.80;99.90;;;;;;5043780;28;20200;-33
2023/03/03 09:41:23;;;;;;;44.87;21.90;;;3.80;99.90;;;;;;5042377;28;20307;-33
2023/03/03 09:44:11;;;;;;;40.80;21.10;;;3.80;99.90;;;;;;5047712;28;20224;-33
2023/03/03 09:47:08;;;;;;;43.00;21.10;;;3.80;99.90;;;;;;5043499;28;20205;-33
2023/03/03 09:49:56;;;;;;;41.37;21.97;;;3.80;99.90;;;;;;5045380;28;20204;-33
2023/03/03 09:52:37;;;;;;;38.37;19.03;;;3.90;99.90;;;;;;5044844;28;20295;-33
2023/03/03 09:55:23;;;;;;;45.40;21.37;;;3.90;99.90;;;;;;5043468;28;20204;-33
2023/03/03 09:58:12;;;;;;;42.17;20.40;;;4.00;99.90;;;;;;5043027;28;20600;-35
2023/03/03 10:00:58;;;;;;;41.00;20.43;;;4.00;99.90;;;;;;5038066;28;20220;-35
2023/03/03 10:03:34;;;;;;;37.80;19.47;;;4.00;99.90;;;;;;5040371;28;20562;-35
2023/03/03 10:06:17;;;;;;;43.33;19.93;;;4.10;99.90;;;;;;5040739;28;20306;-36
2023/03/03 10:09:37;;;;;;;41.13;21.40;;;4.00;99.90;;;;;;5039185;28;20202;-35
2023/03/03 10:12:13;;;;;;;38.60;20.57;;;4.00;99.90;;;;;;4978838;28;20233;-35
2023/03/03 10:15:14;;;;;;;43.30;20.97;;;4.00;99.90;;;;;;5041618;28;20200;-35
2023/03/03 10:18:15;;;;;;;40.40;20.97;;;4.10;99.90;;;;;;5039442;28;20636;-34
2023/03/03 10:20:47;;;;;;;41.80;21.87;;;4.10;99.90;;;;;;5043818;28;20196;-35
2023/03/03 10:23:44;;;;;;;38.77;19.87;;;4.10;99.90;;;;;;5042075;28;21158;-34
2023/03/03 10:26:49;;;;;;;48.17;21.63;;;4.20;99.90;;;;;;5025029;28;20579;-34
2023/03/03 10:30:00;;;;;;;47.97;22.30;;;4.20;99.90;;;;;;5060079;28;20214;-35
2023/03/03 10:32:52;;;;;;;45.67;20.53;;;4.30;99.90;;;;;;5047745;28;20216;-35
2023/03/03 10:35:38;;;;;;;42.37;20.20;;;4.40;99.90;;;;;;5045939;28;20200;-35
2023/03/03 10:38:23;;;;;;;47.00;22.10;;;4.40;99.90;;;;;;5048622;28;20908;-35
2023/03/03 10:41:03;;;;;;;43.03;20.47;;;4.50;99.90;;;;;;5060488;28;20239;-33
2023/03/03 10:43:59;;;;;;;44.93;20.70;;;4.60;99.90;;;;;;5052621;28;20272;-32
2023/03/03 10:46:41;;;;;;;39.97;20.23;;;4.60;99.90;;;;;;5051009;28;20235;-32
2023/03/03 10:49:16;;;;;;;36.90;20.70;;;4.60;99.90;;;;;;5042613;28;20213;-33
2023/03/03 10:52:02;;;;;;;44.23;20.90;;;4.70;99.90;;;;;;5043634;28;20275;-33
2023/03/03 10:55:11;;;;;;;43.03;21.80;;;4.60;99.90;;;;;;5042174;28;20711;-32
2023/03/03 10:58:00;;;;;;;35.03;19.17;;;4.70;99.90;;;;;;4976236;28;20206;-33
2023/03/03 11:00:35;;;;;;;39.33;19.90;;;4.80;99.90;;;;;;5039313;28;20315;-33
2023/03/03 11:03:31;;;;;;;43.30;21.23;;;4.90;99.90;;;;;;5046522;28;20261;-33
2023/03/03 11:06:11;;;;;;;37.60;19.97;;;5.00;99.90;;;;;;5043524;28;20208;-34
2023/03/03 11:08:43;;;;;;;37.40;19.90;;;5.00;99.90;;;;;;5039170;28;20298;-33
2023/03/03 11:11:27;;;;;;;34.47;19.47;;;5.00;99.90;;;;;;5042869;28;20298;-33
2023/03/03 11:14:02;;;;;;;39.03;20.33;;;5.10;99.90;;;;;;5044237;28;20490;-33
2023/03/03 11:16:38;;;;;;;38.37;20.10;;;5.10;99.90;;;;;;5059112;28;20685;-33
2023/03/03 11:19:23;;;;;;;38.77;20.17;;;5.20;99.90;;;;;;5057419;28;20226;-34
2023/03/03 11:22:14;;;;;;;33.23;18.97;;;5.30;99.90;;;;;;5046140;28;20710;-33
2023/03/03 11:25:15;;;;;;;33.33;18.80;;;5.40;99.90;;;;;;5064356;28;20294;-33
2023/03/03 11:28:07;;;;;;;39.03;20.37;;;5.40;99.90;;;;;;5059384;28;20224;-33
2023/03/03 11:30:52;;;;;;;33.37;19.03;;;5.40;99.90;;;;;;5044683;28;20311;-33
2023/03/03 11:33:31;;;;;;;32.50;17.87;;;5.40;99.90;;;;;;5043657;28;20227;-33
2023/03/03 11:36:22;;;;;;;33.03;18.07;;;5.50;99.90;;;;;;5047121;28;20286;-33
2023/03/03 11:38:57;;;;;;;35.03;18.80;;;5.50;99.90;;;;;;5043941;28;20219;-33
2023/03/03 11:41:45;;;;;;;33.33;18.00;;;5.50;99.90;;;;;;5045716;28;20226;-33
2023/03/03 11:44:29;;;;;;;35.80;18.07;;;5.40;99.90;;;;;;5042154;28;20484;-33
2023/03/03 11:47:34;;;;;;;31.57;17.30;;;5.40;99.90;;;;;;5036553;28;20288;-33
2023/03/03 11:50:03;;;;;;;31.87;18.23;;;5.40;99.90;;;;;;5010198;28;20720;-33
2023/03/03 11:53:14;;;;;;;30.17;17.23;;;5.50;99.90;;;;;;5045707;28;20689;-33
2023/03/03 11:55:49;;;;;;;30.97;17.40;;;5.50;99.90;;;;;;5044038;28;20241;-35
2023/03/03 11:58:36;;;;;;;33.37;17.63;;;5.60;99.90;;;;;;5061155;28;20199;-34
2023/03/03 12:01:28;;;;;;;32.07;17.93;;;5.70;99.90;;;;;;5064816;28;20216;-33
2023/03/03 12:04:08;;;;;;;32.97;18.43;;;5.70;99.90;;;;;;5045583;28;20247;-33
2023/03/03 12:06:48;;;;;;;33.57;18.60;;;5.80;99.90;;;;;;5046956;28;20298;-33
2023/03/03 12:09:40;;;;;;;35.87;18.53;;;5.80;99.90;;;;;;5044733;28;20212;-34
2023/03/03 12:12:14;;;;;;;27.50;16.03;;;5.90;99.90;;;;;;5050707;28;20586;-33
2023/03/03 12:15:14;;;;;;;33.20;17.93;;;6.00;99.90;;;;;;5066888;28;20589;-33
2023/03/03 12:17:49;;;;;;;28.73;16.80;;;6.10;99.90;;;;;;5064945;28;20227;-33
2023/03/03 12:20:52;;;;;;;30.67;17.97;;;6.20;99.90;;;;;;5057790;28;20788;-33
2023/03/03 12:23:48;;;;;;;30.97;17.07;;;6.30;99.90;;;;;;5043679;28;20709;-33
2023/03/03 12:26:39;;;;;;;30.77;16.97;;;6.30;99.90;;;;;;5040445;28;20282;-33
2023/03/03 12:29:31;;;;;;;28.17;17.13;;;6.40;99.90;;;;;;5044527;28;20734;-34
2023/03/03 12:31:58;;;;;;;30.63;17.87;;;6.50;99.90;;;;;;5049324;28;20306;-33
2023/03/03 12:34:49;;;;;;;27.10;16.53;;;6.50;99.90;;;;;;5044185;28;20192;-34
2023/03/03 12:37:42;;;;;;;32.40;17.87;;;6.60;99.90;;;;;;5037794;28;20266;-33
2023/03/03 12:40:18;;;;;;;29.23;17.00;;;6.70;99.90;;;;;;5036776;28;20207;-33
2023/03/03 12:42:58;;;;;;;35.77;19.23;;;6.80;99.90;;;;;;5039333;28;20265;-32
2023/03/03 12:45:41;;;;;;;28.87;16.97;;;6.90;99.90;;;;;;5047772;28;20233;-32
2023/03/03 12:48:27;;;;;;;30.23;18.07;;;7.00;99.90;;;;;;5025816;28;20221;-31
2023/03/03 12:51:32;;;;;;;32.43;18.93;;;7.10;99.90;;;;;;5028020;28;20226;-33
2023/03/03 12:54:30;;;;;;;29.73;17.73;;;7.20;99.90;;;;;;5024846;28;20251;-32
2023/03/03 12:57:18;;;;;;;32.33;16.43;;;7.20;99.90;;;;;;5058555;28;20274;-32
2023/03/03 13:00:18;;;;;;;29.53;17.90;;;7.30;99.90;;;;;;5044327;28;20208;-32
2023/03/03 13:03:05;;;;;;;27.97;16.23;;;7.30;99.90;;;;;;5039333;28;20246;-32
2023/03/03 13:06:05;;;;;;;29.53;17.00;;;7.20;99.90;;;;;;5045812;28;20263;-32
2023/03/03 13:08:44;;;;;;;28.43;16.67;;;7.20;99.90;;;;;;5044118;28;20682;-32
2023/03/03 13:11:42;;;;;;;31.80;17.30;;;7.10;99.90;;;;;;5058734;28;20220;-32
2023/03/03 13:14:21;;;;;;;29.03;16.60;;;7.20;99.90;;;;;;5046714;28;20616;-32
2023/03/03 13:17:01;;;;;;;28.37;16.57;;;7.10;99.90;;;;;;5039275;28;20716;-33
2023/03/03 13:19:40;;;;;;;29.23;15.73;;;7.10;99.90;;;;;;5043440;28;20277;-32
2023/03/03 13:22:14;;;;;;;26.73;16.27;;;7.00;99.90;;;;;;5058201;28;20215;-32